sensor_id;sensor_type;location;lat;lon;timestamp;P1;durP1;ratioP1;P2;durP2;ratioP2
75758;SDS011;64371;47.566;19.086;2023-04-24T00:02:29;11.32;;;7.35;;
75758;SDS011;64371;47.566;19.086;2023-04-24T00:05:33;13.05;;;7.88;;
75758;SDS011;64371;47.566;19.086;2023-04-24T00:08:36;11.63;;;8.07;;
75758;SDS011;64371;47.566;19.086;2023-04-24T00:11:38;12.73;;;8.10;;
75758;SDS011;64371;47.566;19.086;2023-04-24T00:14:40;10.90;;;7.53;;
75758;SDS011;64371;47.566;19.086;2023-04-24T00:17:43;10.63;;;7.93;;
75758;SDS011;64371;47.566;19.086;2023-04-24T00:20:45;13.20;;;7.90;;
75758;SDS011;64371;47.566;19.086;2023-04-24T00:23:48;12.27;;;7.50;;
75758;SDS011;64371;47.566;19.086;2023-04-24T00:26:50;10.48;;;7.35;;
75758;SDS011;64371;47.566;19.086;2023-04-24T00:29:52;13.33;;;7.47;;
75758;SDS011;64371;47.566;19.086;2023-04-24T00:32:55;10.82;;;7.07;;
75758;SDS011;64371;47.566;19.086;2023-04-24T00:35:58;12.90;;;8.20;;
75758;SDS011;64371;47.566;19.086;2023-04-24T00:39:00;10.90;;;7.45;;
75758;SDS011;64371;47.566;19.086;2023-04-24T00:42:03;11.45;;;7.53;;
75758;SDS011;64371;47.566;19.086;2023-04-24T00:45:07;10.20;;;7.07;;
75758;SDS011;64371;47.566;19.086;2023-04-24T00:48:10;11.88;;;7.57;;
75758;SDS011;64371;47.566;19.086;2023-04-24T00:51:14;12.38;;;7.53;;
75758;SDS011;64371;47.566;19.086;2023-04-24T00:54:17;11.07;;;7.60;;
75758;SDS011;64371;47.566;19.086;2023-04-24T00:57:19;11.90;;;7.57;;
75758;SDS011;64371;47.566;19.086;2023-04-24T01:00:22;10.37;;;7.50;;
75758;SDS011;64371;47.566;19.086;2023-04-24T01:03:27;13.40;;;8.38;;
75758;SDS011;64371;47.566;19.086;2023-04-24T01:06:34;9.52;;;7.40;;
75758;SDS011;64371;47.566;19.086;2023-04-24T01:09:37;14.10;;;7.93;;
75758;SDS011;64371;47.566;19.086;2023-04-24T01:12:42;11.82;;;8.73;;
75758;SDS011;64371;47.566;19.086;2023-04-24T01:15:47;13.93;;;8.97;;
75758;SDS011;64371;47.566;19.086;2023-04-24T01:18:49;12.55;;;8.57;;
75758;SDS011;64371;47.566;19.086;2023-04-24T01:21:53;13.43;;;8.50;;
75758;SDS011;64371;47.566;19.086;2023-04-24T01:25:00;14.00;;;8.52;;
75758;SDS011;64371;47.566;19.086;2023-04-24T01:28:04;11.70;;;7.55;;
75758;SDS011;64371;47.566;19.086;2023-04-24T01:31:07;11.53;;;7.23;;
75758;SDS011;64371;47.566;19.086;2023-04-24T01:34:09;10.15;;;7.20;;
75758;SDS011;64371;47.566;19.086;2023-04-24T01:37:12;11.70;;;6.90;;
75758;SDS011;64371;47.566;19.086;2023-04-24T01:40:14;9.57;;;6.10;;
75758;SDS011;64371;47.566;19.086;2023-04-24T01:43:17;10.70;;;6.28;;
75758;SDS011;64371;47.566;19.086;2023-04-24T01:46:20;14.00;;;6.70;;
75758;SDS011;64371;47.566;19.086;2023-04-24T01:49:22;8.57;;;4.97;;
75758;SDS011;64371;47.566;19.086;2023-04-24T01:52:24;9.40;;;6.50;;
75758;SDS011;64371;47.566;19.086;2023-04-24T01:55:28;8.50;;;6.57;;
75758;SDS011;64371;47.566;19.086;2023-04-24T01:58:30;12.10;;;6.75;;
75758;SDS011;64371;47.566;19.086;2023-04-24T02:01:33;13.73;;;8.50;;
75758;SDS011;64371;47.566;19.086;2023-04-24T02:04:37;14.07;;;8.45;;
75758;SDS011;64371;47.566;19.086;2023-04-24T02:07:42;12.88;;;8.30;;
75758;SDS011;64371;47.566;19.086;2023-04-24T02:10:44;13.48;;;8.55;;
75758;SDS011;64371;47.566;19.086;2023-04-24T02:13:47;15.65;;;9.40;;
75758;SDS011;64371;47.566;19.086;2023-04-24T02:16:50;12.33;;;9.50;;
75758;SDS011;64371;47.566;19.086;2023-04-24T02:19:53;16.38;;;8.57;;
75758;SDS011;64371;47.566;19.086;2023-04-24T02:22:55;13.63;;;9.70;;
75758;SDS011;64371;47.566;19.086;2023-04-24T02:25:57;14.80;;;10.05;;
75758;SDS011;64371;47.566;19.086;2023-04-24T02:28:59;15.35;;;9.93;;
75758;SDS011;64371;47.566;19.086;2023-04-24T02:32:02;14.17;;;10.60;;
75758;SDS011;64371;47.566;19.086;2023-04-24T02:35:04;16.42;;;11.05;;
75758;SDS011;64371;47.566;19.086;2023-04-24T02:38:07;16.85;;;11.30;;
75758;SDS011;64371;47.566;19.086;2023-04-24T02:41:10;16.17;;;10.77;;
75758;SDS011;64371;47.566;19.086;2023-04-24T02:44:13;15.15;;;11.15;;
75758;SDS011;64371;47.566;19.086;2023-04-24T02:47:15;16.27;;;11.53;;
75758;SDS011;64371;47.566;19.086;2023-04-24T02:50:17;17.27;;;11.25;;
75758;SDS011;64371;47.566;19.086;2023-04-24T02:53:19;17.90;;;11.45;;
75758;SDS011;64371;47.566;19.086;2023-04-24T02:56:22;17.38;;;11.05;;
75758;SDS011;64371;47.566;19.086;2023-04-24T02:59:24;17.73;;;11.15;;
75758;SDS011;64371;47.566;19.086;2023-04-24T03:02:29;15.03;;;11.43;;
75758;SDS011;64371;47.566;19.086;2023-04-24T03:05:31;18.85;;;11.80;;
75758;SDS011;64371;47.566;19.086;2023-04-24T03:08:34;16.05;;;10.90;;
75758;SDS011;64371;47.566;19.086;2023-04-24T03:11:37;18.40;;;11.00;;
75758;SDS011;64371;47.566;19.086;2023-04-24T03:14:39;14.70;;;10.68;;
75758;SDS011;64371;47.566;19.086;2023-04-24T03:17:41;15.93;;;10.67;;
75758;SDS011;64371;47.566;19.086;2023-04-24T03:20:46;18.70;;;12.55;;
75758;SDS011;64371;47.566;19.086;2023-04-24T03:23:49;14.73;;;9.93;;
75758;SDS011;64371;47.566;19.086;2023-04-24T03:26:52;15.35;;;11.10;;
75758;SDS011;64371;47.566;19.086;2023-04-24T03:30:20;17.80;;;11.38;;
75758;SDS011;64371;47.566;19.086;2023-04-24T03:33:30;17.40;;;11.60;;
75758;SDS011;64371;47.566;19.086;2023-04-24T03:36:36;17.08;;;11.40;;
75758;SDS011;64371;47.566;19.086;2023-04-24T03:39:41;16.30;;;11.43;;
75758;SDS011;64371;47.566;19.086;2023-04-24T03:42:44;20.42;;;11.73;;
75758;SDS011;64371;47.566;19.086;2023-04-24T03:45:47;15.68;;;11.02;;
75758;SDS011;64371;47.566;19.086;2023-04-24T03:48:50;17.23;;;11.50;;
75758;SDS011;64371;47.566;19.086;2023-04-24T03:51:54;16.30;;;11.98;;
75758;SDS011;64371;47.566;19.086;2023-04-24T03:54:59;16.92;;;12.48;;
75758;SDS011;64371;47.566;19.086;2023-04-24T03:58:03;15.32;;;10.75;;
75758;SDS011;64371;47.566;19.086;2023-04-24T04:01:06;16.42;;;11.18;;
75758;SDS011;64371;47.566;19.086;2023-04-24T04:04:23;17.23;;;10.87;;
75758;SDS011;64371;47.566;19.086;2023-04-24T04:07:25;17.20;;;11.45;;
75758;SDS011;64371;47.566;19.086;2023-04-24T04:10:28;15.48;;;11.50;;
75758;SDS011;64371;47.566;19.086;2023-04-24T04:13:31;16.13;;;11.18;;
75758;SDS011;64371;47.566;19.086;2023-04-24T04:16:33;17.15;;;11.15;;
75758;SDS011;64371;47.566;19.086;2023-04-24T04:19:39;16.50;;;10.80;;
75758;SDS011;64371;47.566;19.086;2023-04-24T04:22:42;15.88;;;10.68;;
75758;SDS011;64371;47.566;19.086;2023-04-24T04:25:50;15.00;;;10.40;;
75758;SDS011;64371;47.566;19.086;2023-04-24T04:28:57;15.63;;;10.88;;
75758;SDS011;64371;47.566;19.086;2023-04-24T04:32:00;16.42;;;10.07;;
75758;SDS011;64371;47.566;19.086;2023-04-24T04:35:03;16.40;;;12.10;;
75758;SDS011;64371;47.566;19.086;2023-04-24T04:38:07;15.75;;;10.57;;
75758;SDS011;64371;47.566;19.086;2023-04-24T04:41:25;16.77;;;9.95;;
75758;SDS011;64371;47.566;19.086;2023-04-24T04:44:28;20.27;;;10.40;;
75758;SDS011;64371;47.566;19.086;2023-04-24T04:47:32;17.58;;;11.18;;
75758;SDS011;64371;47.566;19.086;2023-04-24T04:50:36;14.97;;;10.60;;
75758;SDS011;64371;47.566;19.086;2023-04-24T04:53:41;17.27;;;10.52;;
75758;SDS011;64371;47.566;19.086;2023-04-24T04:56:44;15.55;;;9.48;;
75758;SDS011;64371;47.566;19.086;2023-04-24T04:59:46;15.73;;;11.40;;
75758;SDS011;64371;47.566;19.086;2023-04-24T05:02:59;17.52;;;11.30;;
75758;SDS011;64371;47.566;19.086;2023-04-24T05:06:21;14.33;;;10.70;;
75758;SDS011;64371;47.566;19.086;2023-04-24T05:09:25;18.70;;;10.93;;
75758;SDS011;64371;47.566;19.086;2023-04-24T05:12:34;15.30;;;10.48;;
75758;SDS011;64371;47.566;19.086;2023-04-24T05:15:37;16.20;;;11.10;;
75758;SDS011;64371;47.566;19.086;2023-04-24T05:18:40;16.92;;;10.60;;
75758;SDS011;64371;47.566;19.086;2023-04-24T05:21:45;14.53;;;10.43;;
75758;SDS011;64371;47.566;19.086;2023-04-24T05:24:49;14.45;;;10.73;;
75758;SDS011;64371;47.566;19.086;2023-04-24T05:28:05;16.30;;;12.00;;
75758;SDS011;64371;47.566;19.086;2023-04-24T05:31:08;17.73;;;11.52;;
75758;SDS011;64371;47.566;19.086;2023-04-24T05:34:11;16.55;;;10.98;;
75758;SDS011;64371;47.566;19.086;2023-04-24T05:37:17;17.87;;;12.47;;
75758;SDS011;64371;47.566;19.086;2023-04-24T05:40:20;14.65;;;11.10;;
75758;SDS011;64371;47.566;19.086;2023-04-24T05:43:23;19.40;;;12.30;;
75758;SDS011;64371;47.566;19.086;2023-04-24T05:46:25;16.17;;;11.50;;
75758;SDS011;64371;47.566;19.086;2023-04-24T05:49:29;16.10;;;11.75;;
75758;SDS011;64371;47.566;19.086;2023-04-24T05:52:32;16.27;;;11.23;;
75758;SDS011;64371;47.566;19.086;2023-04-24T05:55:37;17.00;;;11.93;;
75758;SDS011;64371;47.566;19.086;2023-04-24T05:58:40;18.42;;;11.77;;
75758;SDS011;64371;47.566;19.086;2023-04-24T06:01:43;16.35;;;11.85;;
75758;SDS011;64371;47.566;19.086;2023-04-24T06:04:51;16.27;;;11.70;;
75758;SDS011;64371;47.566;19.086;2023-04-24T06:07:53;20.47;;;13.53;;
75758;SDS011;64371;47.566;19.086;2023-04-24T06:10:58;18.83;;;11.77;;
75758;SDS011;64371;47.566;19.086;2023-04-24T06:14:01;14.77;;;9.23;;
75758;SDS011;64371;47.566;19.086;2023-04-24T06:17:30;11.60;;;6.13;;
75758;SDS011;64371;47.566;19.086;2023-04-24T06:20:33;13.60;;;8.45;;
75758;SDS011;64371;47.566;19.086;2023-04-24T06:23:38;14.13;;;8.60;;
75758;SDS011;64371;47.566;19.086;2023-04-24T06:26:40;11.98;;;8.07;;
75758;SDS011;64371;47.566;19.086;2023-04-24T06:29:43;7.95;;;5.03;;
75758;SDS011;64371;47.566;19.086;2023-04-24T06:32:46;13.25;;;8.20;;
75758;SDS011;64371;47.566;19.086;2023-04-24T06:35:49;14.65;;;9.63;;
75758;SDS011;64371;47.566;19.086;2023-04-24T06:38:52;10.40;;;6.57;;
75758;SDS011;64371;47.566;19.086;2023-04-24T06:41:54;15.15;;;8.90;;
75758;SDS011;64371;47.566;19.086;2023-04-24T06:44:58;14.30;;;9.40;;
75758;SDS011;64371;47.566;19.086;2023-04-24T06:48:01;15.77;;;9.32;;
75758;SDS011;64371;47.566;19.086;2023-04-24T06:51:04;11.23;;;7.72;;
75758;SDS011;64371;47.566;19.086;2023-04-24T06:54:07;15.60;;;9.47;;
75758;SDS011;64371;47.566;19.086;2023-04-24T06:57:10;13.65;;;8.93;;
75758;SDS011;64371;47.566;19.086;2023-04-24T07:00:12;9.88;;;5.55;;
75758;SDS011;64371;47.566;19.086;2023-04-24T07:03:15;13.55;;;5.72;;
75758;SDS011;64371;47.566;19.086;2023-04-24T07:06:18;9.20;;;5.45;;
75758;SDS011;64371;47.566;19.086;2023-04-24T07:09:23;13.03;;;8.67;;
75758;SDS011;64371;47.566;19.086;2023-04-24T07:12:27;12.15;;;6.45;;
75758;SDS011;64371;47.566;19.086;2023-04-24T07:15:30;13.43;;;8.48;;
75758;SDS011;64371;47.566;19.086;2023-04-24T07:18:34;12.25;;;6.60;;
75758;SDS011;64371;47.566;19.086;2023-04-24T07:21:36;12.95;;;8.85;;
75758;SDS011;64371;47.566;19.086;2023-04-24T07:24:39;11.23;;;6.73;;
75758;SDS011;64371;47.566;19.086;2023-04-24T07:27:42;9.18;;;6.35;;
75758;SDS011;64371;47.566;19.086;2023-04-24T07:30:45;7.65;;;5.63;;
75758;SDS011;64371;47.566;19.086;2023-04-24T07:33:48;12.68;;;7.13;;
75758;SDS011;64371;47.566;19.086;2023-04-24T07:36:51;10.48;;;6.28;;
75758;SDS011;64371;47.566;19.086;2023-04-24T07:39:54;11.40;;;7.60;;
75758;SDS011;64371;47.566;19.086;2023-04-24T07:42:57;10.18;;;5.82;;
75758;SDS011;64371;47.566;19.086;2023-04-24T07:45:59;11.48;;;7.75;;
75758;SDS011;64371;47.566;19.086;2023-04-24T07:49:02;13.32;;;6.78;;
75758;SDS011;64371;47.566;19.086;2023-04-24T07:52:14;13.63;;;8.65;;
75758;SDS011;64371;47.566;19.086;2023-04-24T07:55:17;13.57;;;8.43;;
75758;SDS011;64371;47.566;19.086;2023-04-24T07:58:22;7.70;;;5.55;;
75758;SDS011;64371;47.566;19.086;2023-04-24T08:01:25;13.82;;;7.78;;
75758;SDS011;64371;47.566;19.086;2023-04-24T08:04:27;9.35;;;6.30;;
75758;SDS011;64371;47.566;19.086;2023-04-24T08:07:30;11.95;;;7.78;;
75758;SDS011;64371;47.566;19.086;2023-04-24T08:10:33;11.20;;;5.20;;
75758;SDS011;64371;47.566;19.086;2023-04-24T08:13:36;11.18;;;7.97;;
75758;SDS011;64371;47.566;19.086;2023-04-24T08:16:38;12.15;;;6.55;;
75758;SDS011;64371;47.566;19.086;2023-04-24T08:19:41;9.68;;;6.75;;
75758;SDS011;64371;47.566;19.086;2023-04-24T08:22:49;11.98;;;7.63;;
75758;SDS011;64371;47.566;19.086;2023-04-24T08:25:53;11.63;;;7.63;;
75758;SDS011;64371;47.566;19.086;2023-04-24T08:28:56;11.93;;;9.07;;
75758;SDS011;64371;47.566;19.086;2023-04-24T08:31:58;12.98;;;8.82;;
75758;SDS011;64371;47.566;19.086;2023-04-24T08:35:02;11.77;;;7.47;;
75758;SDS011;64371;47.566;19.086;2023-04-24T08:38:05;11.40;;;6.85;;
75758;SDS011;64371;47.566;19.086;2023-04-24T08:41:07;11.30;;;8.20;;
75758;SDS011;64371;47.566;19.086;2023-04-24T08:44:12;14.43;;;7.75;;
75758;SDS011;64371;47.566;19.086;2023-04-24T08:47:16;15.88;;;6.57;;
75758;SDS011;64371;47.566;19.086;2023-04-24T08:50:18;12.23;;;8.98;;
75758;SDS011;64371;47.566;19.086;2023-04-24T08:53:21;11.73;;;8.60;;
75758;SDS011;64371;47.566;19.086;2023-04-24T08:56:26;12.73;;;8.20;;
75758;SDS011;64371;47.566;19.086;2023-04-24T08:59:30;12.00;;;8.20;;
75758;SDS011;64371;47.566;19.086;2023-04-24T09:02:33;8.80;;;6.07;;
75758;SDS011;64371;47.566;19.086;2023-04-24T09:10:49;15.45;;;8.18;;
75758;SDS011;64371;47.566;19.086;2023-04-24T09:13:53;11.97;;;8.33;;
75758;SDS011;64371;47.566;19.086;2023-04-24T09:16:56;12.02;;;7.05;;
75758;SDS011;64371;47.566;19.086;2023-04-24T09:19:58;10.80;;;7.43;;
75758;SDS011;64371;47.566;19.086;2023-04-24T09:23:00;9.25;;;5.57;;
75758;SDS011;64371;47.566;19.086;2023-04-24T09:26:03;6.75;;;5.40;;
75758;SDS011;64371;47.566;19.086;2023-04-24T09:29:13;10.23;;;7.40;;
75758;SDS011;64371;47.566;19.086;2023-04-24T09:32:19;15.07;;;10.02;;
75758;SDS011;64371;47.566;19.086;2023-04-24T09:35:24;8.07;;;5.70;;
75758;SDS011;64371;47.566;19.086;2023-04-24T09:38:33;7.90;;;5.70;;
75758;SDS011;64371;47.566;19.086;2023-04-24T09:41:43;10.25;;;6.57;;
75758;SDS011;64371;47.566;19.086;2023-04-24T09:44:50;8.53;;;6.27;;
75758;SDS011;64371;47.566;19.086;2023-04-24T09:48:05;6.32;;;5.15;;
75758;SDS011;64371;47.566;19.086;2023-04-24T09:51:10;8.48;;;4.50;;
75758;SDS011;64371;47.566;19.086;2023-04-24T09:54:15;6.32;;;4.38;;
75758;SDS011;64371;47.566;19.086;2023-04-24T09:57:19;8.90;;;5.63;;
75758;SDS011;64371;47.566;19.086;2023-04-24T10:00:22;9.07;;;5.63;;
75758;SDS011;64371;47.566;19.086;2023-04-24T10:03:25;7.13;;;5.07;;
75758;SDS011;64371;47.566;19.086;2023-04-24T10:06:33;5.07;;;3.45;;
75758;SDS011;64371;47.566;19.086;2023-04-24T10:09:36;7.03;;;4.22;;
75758;SDS011;64371;47.566;19.086;2023-04-24T10:12:39;6.95;;;5.78;;
75758;SDS011;64371;47.566;19.086;2023-04-24T10:15:42;6.63;;;5.00;;
75758;SDS011;64371;47.566;19.086;2023-04-24T10:18:44;8.40;;;4.72;;
75758;SDS011;64371;47.566;19.086;2023-04-24T10:21:48;7.10;;;3.85;;
75758;SDS011;64371;47.566;19.086;2023-04-24T10:24:51;7.07;;;5.13;;
75758;SDS011;64371;47.566;19.086;2023-04-24T10:27:54;6.03;;;4.57;;
75758;SDS011;64371;47.566;19.086;2023-04-24T10:31:01;7.63;;;5.23;;
75758;SDS011;64371;47.566;19.086;2023-04-24T10:34:04;7.97;;;5.45;;
75758;SDS011;64371;47.566;19.086;2023-04-24T10:37:08;8.07;;;4.30;;
75758;SDS011;64371;47.566;19.086;2023-04-24T10:40:16;10.40;;;6.40;;
75758;SDS011;64371;47.566;19.086;2023-04-24T10:43:21;8.65;;;5.95;;
75758;SDS011;64371;47.566;19.086;2023-04-24T10:46:24;7.33;;;4.43;;
75758;SDS011;64371;47.566;19.086;2023-04-24T10:49:32;7.05;;;4.88;;
75758;SDS011;64371;47.566;19.086;2023-04-24T10:52:44;8.52;;;5.95;;
75758;SDS011;64371;47.566;19.086;2023-04-24T10:55:49;10.52;;;6.53;;
75758;SDS011;64371;47.566;19.086;2023-04-24T10:58:53;10.32;;;6.78;;
75758;SDS011;64371;47.566;19.086;2023-04-24T11:01:55;8.77;;;5.83;;
75758;SDS011;64371;47.566;19.086;2023-04-24T11:04:58;10.63;;;6.78;;
75758;SDS011;64371;47.566;19.086;2023-04-24T11:08:15;10.00;;;6.30;;
75758;SDS011;64371;47.566;19.086;2023-04-24T11:11:24;13.93;;;7.75;;
75758;SDS011;64371;47.566;19.086;2023-04-24T11:14:30;8.50;;;6.32;;
75758;SDS011;64371;47.566;19.086;2023-04-24T11:18:00;10.47;;;7.20;;
75758;SDS011;64371;47.566;19.086;2023-04-24T11:21:09;9.93;;;7.40;;
75758;SDS011;64371;47.566;19.086;2023-04-24T11:24:35;9.30;;;5.25;;
75758;SDS011;64371;47.566;19.086;2023-04-24T11:27:47;11.00;;;7.38;;
75758;SDS011;64371;47.566;19.086;2023-04-24T11:30:50;15.75;;;10.23;;
75758;SDS011;64371;47.566;19.086;2023-04-24T11:33:54;11.37;;;6.63;;
75758;SDS011;64371;47.566;19.086;2023-04-24T11:36:57;12.82;;;8.13;;
75758;SDS011;64371;47.566;19.086;2023-04-24T11:39:59;12.95;;;7.75;;
75758;SDS011;64371;47.566;19.086;2023-04-24T11:43:03;10.45;;;6.47;;
75758;SDS011;64371;47.566;19.086;2023-04-24T11:46:16;10.88;;;6.82;;
75758;SDS011;64371;47.566;19.086;2023-04-24T11:49:19;12.37;;;5.50;;
75758;SDS011;64371;47.566;19.086;2023-04-24T11:52:21;6.95;;;4.95;;
75758;SDS011;64371;47.566;19.086;2023-04-24T11:55:27;11.93;;;6.35;;
75758;SDS011;64371;47.566;19.086;2023-04-24T11:58:37;12.35;;;7.68;;
75758;SDS011;64371;47.566;19.086;2023-04-24T12:01:44;12.32;;;7.95;;
75758;SDS011;64371;47.566;19.086;2023-04-24T12:04:47;11.87;;;7.10;;
75758;SDS011;64371;47.566;19.086;2023-04-24T12:07:50;5.95;;;3.97;;
75758;SDS011;64371;47.566;19.086;2023-04-24T12:10:53;9.77;;;6.55;;
75758;SDS011;64371;47.566;19.086;2023-04-24T12:13:56;16.17;;;7.05;;
75758;SDS011;64371;47.566;19.086;2023-04-24T12:16:58;15.40;;;8.80;;
75758;SDS011;64371;47.566;19.086;2023-04-24T12:20:01;11.10;;;8.03;;
75758;SDS011;64371;47.566;19.086;2023-04-24T12:23:09;17.85;;;8.75;;
75758;SDS011;64371;47.566;19.086;2023-04-24T12:26:12;12.38;;;7.68;;
75758;SDS011;64371;47.566;19.086;2023-04-24T12:29:21;8.65;;;5.35;;
75758;SDS011;64371;47.566;19.086;2023-04-24T12:32:24;12.63;;;9.15;;
75758;SDS011;64371;47.566;19.086;2023-04-24T12:35:30;12.67;;;7.93;;
75758;SDS011;64371;47.566;19.086;2023-04-24T12:38:34;10.80;;;7.25;;
75758;SDS011;64371;47.566;19.086;2023-04-24T12:41:55;14.55;;;8.23;;
75758;SDS011;64371;47.566;19.086;2023-04-24T12:45:04;10.43;;;6.72;;
75758;SDS011;64371;47.566;19.086;2023-04-24T12:48:27;10.68;;;7.07;;
75758;SDS011;64371;47.566;19.086;2023-04-24T12:51:31;9.67;;;6.83;;
75758;SDS011;64371;47.566;19.086;2023-04-24T12:54:33;11.73;;;7.40;;
75758;SDS011;64371;47.566;19.086;2023-04-24T12:57:39;11.70;;;6.75;;
75758;SDS011;64371;47.566;19.086;2023-04-24T13:00:42;14.80;;;9.75;;
75758;SDS011;64371;47.566;19.086;2023-04-24T13:03:45;16.23;;;8.77;;
75758;SDS011;64371;47.566;19.086;2023-04-24T13:06:48;12.43;;;7.37;;
75758;SDS011;64371;47.566;19.086;2023-04-24T13:09:51;13.63;;;7.80;;
75758;SDS011;64371;47.566;19.086;2023-04-24T13:12:54;14.48;;;9.38;;
75758;SDS011;64371;47.566;19.086;2023-04-24T13:15:56;12.55;;;7.88;;
75758;SDS011;64371;47.566;19.086;2023-04-24T13:18:59;12.13;;;8.82;;
75758;SDS011;64371;47.566;19.086;2023-04-24T13:22:01;12.33;;;8.27;;
75758;SDS011;64371;47.566;19.086;2023-04-24T13:25:04;14.60;;;8.63;;
75758;SDS011;64371;47.566;19.086;2023-04-24T13:28:08;11.43;;;7.82;;
75758;SDS011;64371;47.566;19.086;2023-04-24T13:31:10;11.07;;;6.40;;
75758;SDS011;64371;47.566;19.086;2023-04-24T13:34:13;7.18;;;4.55;;
75758;SDS011;64371;47.566;19.086;2023-04-24T13:37:15;10.40;;;4.87;;
75758;SDS011;64371;47.566;19.086;2023-04-24T13:40:18;8.32;;;5.07;;
75758;SDS011;64371;47.566;19.086;2023-04-24T13:43:20;9.82;;;4.82;;
75758;SDS011;64371;47.566;19.086;2023-04-24T13:46:22;8.60;;;4.57;;
75758;SDS011;64371;47.566;19.086;2023-04-24T13:49:25;7.57;;;3.05;;
75758;SDS011;64371;47.566;19.086;2023-04-24T13:52:28;5.20;;;3.67;;
75758;SDS011;64371;47.566;19.086;2023-04-24T13:55:30;6.47;;;4.05;;
75758;SDS011;64371;47.566;19.086;2023-04-24T13:58:34;8.27;;;4.03;;
75758;SDS011;64371;47.566;19.086;2023-04-24T14:01:38;9.07;;;4.68;;
75758;SDS011;64371;47.566;19.086;2023-04-24T14:04:41;8.18;;;4.32;;
75758;SDS011;64371;47.566;19.086;2023-04-24T14:07:44;7.63;;;5.50;;
75758;SDS011;64371;47.566;19.086;2023-04-24T14:10:46;9.38;;;5.78;;
75758;SDS011;64371;47.566;19.086;2023-04-24T14:13:49;10.30;;;7.43;;
75758;SDS011;64371;47.566;19.086;2023-04-24T14:16:52;7.13;;;4.97;;
75758;SDS011;64371;47.566;19.086;2023-04-24T14:19:54;9.70;;;4.22;;
75758;SDS011;64371;47.566;19.086;2023-04-24T14:22:58;11.03;;;7.83;;
75758;SDS011;64371;47.566;19.086;2023-04-24T14:26:01;10.63;;;7.00;;
75758;SDS011;64371;47.566;19.086;2023-04-24T14:29:03;10.85;;;7.38;;
75758;SDS011;64371;47.566;19.086;2023-04-24T14:32:15;10.80;;;7.63;;
75758;SDS011;64371;47.566;19.086;2023-04-24T14:35:18;11.93;;;7.45;;
75758;SDS011;64371;47.566;19.086;2023-04-24T14:38:21;13.60;;;8.00;;
75758;SDS011;64371;47.566;19.086;2023-04-24T14:41:24;11.15;;;7.13;;
75758;SDS011;64371;47.566;19.086;2023-04-24T14:44:27;14.80;;;8.00;;
75758;SDS011;64371;47.566;19.086;2023-04-24T14:47:29;11.43;;;7.97;;
75758;SDS011;64371;47.566;19.086;2023-04-24T14:50:32;11.32;;;8.63;;
75758;SDS011;64371;47.566;19.086;2023-04-24T14:53:35;12.73;;;8.03;;
75758;SDS011;64371;47.566;19.086;2023-04-24T14:56:37;11.35;;;7.40;;
75758;SDS011;64371;47.566;19.086;2023-04-24T14:59:42;14.68;;;10.13;;
75758;SDS011;64371;47.566;19.086;2023-04-24T15:02:45;13.18;;;9.10;;
75758;SDS011;64371;47.566;19.086;2023-04-24T15:05:47;10.73;;;7.60;;
75758;SDS011;64371;47.566;19.086;2023-04-24T15:08:50;11.93;;;8.13;;
75758;SDS011;64371;47.566;19.086;2023-04-24T15:11:52;12.80;;;8.48;;
75758;SDS011;64371;47.566;19.086;2023-04-24T15:14:55;10.18;;;8.00;;
75758;SDS011;64371;47.566;19.086;2023-04-24T15:17:57;10.23;;;7.53;;
75758;SDS011;64371;47.566;19.086;2023-04-24T15:20:59;10.07;;;8.27;;
75758;SDS011;64371;47.566;19.086;2023-04-24T15:24:02;12.60;;;7.77;;
75758;SDS011;64371;47.566;19.086;2023-04-24T15:27:09;10.52;;;7.65;;
75758;SDS011;64371;47.566;19.086;2023-04-24T15:30:13;11.00;;;8.07;;
75758;SDS011;64371;47.566;19.086;2023-04-24T15:33:15;8.38;;;6.82;;
75758;SDS011;64371;47.566;19.086;2023-04-24T15:36:18;8.52;;;6.22;;
75758;SDS011;64371;47.566;19.086;2023-04-24T15:39:23;8.17;;;6.33;;
75758;SDS011;64371;47.566;19.086;2023-04-24T15:42:26;7.53;;;5.47;;
75758;SDS011;64371;47.566;19.086;2023-04-24T15:45:29;7.38;;;5.10;;
75758;SDS011;64371;47.566;19.086;2023-04-24T15:48:32;7.50;;;5.20;;
75758;SDS011;64371;47.566;19.086;2023-04-24T15:51:34;6.57;;;5.07;;
75758;SDS011;64371;47.566;19.086;2023-04-24T15:54:36;6.17;;;4.90;;
75758;SDS011;64371;47.566;19.086;2023-04-24T15:57:40;7.82;;;5.15;;
75758;SDS011;64371;47.566;19.086;2023-04-24T16:00:43;6.55;;;4.32;;
75758;SDS011;64371;47.566;19.086;2023-04-24T16:03:47;6.88;;;4.70;;
75758;SDS011;64371;47.566;19.086;2023-04-24T16:06:50;7.38;;;4.78;;
75758;SDS011;64371;47.566;19.086;2023-04-24T16:09:52;6.67;;;5.03;;
75758;SDS011;64371;47.566;19.086;2023-04-24T16:12:55;7.22;;;5.60;;
75758;SDS011;64371;47.566;19.086;2023-04-24T16:15:57;7.32;;;5.30;;
75758;SDS011;64371;47.566;19.086;2023-04-24T16:18:59;7.03;;;5.60;;
75758;SDS011;64371;47.566;19.086;2023-04-24T16:22:02;6.45;;;5.07;;
75758;SDS011;64371;47.566;19.086;2023-04-24T16:25:06;6.50;;;5.77;;
75758;SDS011;64371;47.566;19.086;2023-04-24T16:28:09;6.10;;;5.50;;
75758;SDS011;64371;47.566;19.086;2023-04-24T16:31:13;8.63;;;6.15;;
75758;SDS011;64371;47.566;19.086;2023-04-24T16:34:15;5.97;;;4.35;;
75758;SDS011;64371;47.566;19.086;2023-04-24T16:37:17;6.10;;;4.85;;
75758;SDS011;64371;47.566;19.086;2023-04-24T16:40:21;5.70;;;3.80;;
75758;SDS011;64371;47.566;19.086;2023-04-24T16:43:23;6.30;;;4.13;;
75758;SDS011;64371;47.566;19.086;2023-04-24T16:46:26;7.45;;;3.95;;
75758;SDS011;64371;47.566;19.086;2023-04-24T16:49:28;4.78;;;4.18;;
75758;SDS011;64371;47.566;19.086;2023-04-24T16:52:32;6.25;;;3.50;;
75758;SDS011;64371;47.566;19.086;2023-04-24T16:55:35;4.83;;;3.70;;
75758;SDS011;64371;47.566;19.086;2023-04-24T16:58:37;5.32;;;4.05;;
75758;SDS011;64371;47.566;19.086;2023-04-24T17:01:41;4.88;;;3.70;;
75758;SDS011;64371;47.566;19.086;2023-04-24T17:04:44;10.77;;;7.47;;
75758;SDS011;64371;47.566;19.086;2023-04-24T17:07:48;9.30;;;3.90;;
75758;SDS011;64371;47.566;19.086;2023-04-24T17:10:53;6.17;;;4.80;;
75758;SDS011;64371;47.566;19.086;2023-04-24T17:13:55;5.20;;;4.60;;
75758;SDS011;64371;47.566;19.086;2023-04-24T17:17:00;5.20;;;4.45;;
75758;SDS011;64371;47.566;19.086;2023-04-24T17:20:03;5.90;;;3.92;;
75758;SDS011;64371;47.566;19.086;2023-04-24T17:23:22;6.60;;;4.78;;
75758;SDS011;64371;47.566;19.086;2023-04-24T17:26:25;6.60;;;5.27;;
75758;SDS011;64371;47.566;19.086;2023-04-24T17:29:27;8.32;;;5.85;;
75758;SDS011;64371;47.566;19.086;2023-04-24T17:32:30;6.88;;;5.55;;
75758;SDS011;64371;47.566;19.086;2023-04-24T17:35:32;7.30;;;5.28;;
75758;SDS011;64371;47.566;19.086;2023-04-24T17:38:34;7.72;;;5.93;;
75758;SDS011;64371;47.566;19.086;2023-04-24T17:41:37;7.17;;;5.13;;
75758;SDS011;64371;47.566;19.086;2023-04-24T17:44:39;7.95;;;5.60;;
75758;SDS011;64371;47.566;19.086;2023-04-24T17:47:42;5.97;;;4.78;;
75758;SDS011;64371;47.566;19.086;2023-04-24T17:50:44;7.03;;;4.57;;
75758;SDS011;64371;47.566;19.086;2023-04-24T17:53:47;5.57;;;4.10;;
75758;SDS011;64371;47.566;19.086;2023-04-24T17:56:49;6.73;;;4.53;;
75758;SDS011;64371;47.566;19.086;2023-04-24T17:59:53;3.65;;;2.83;;
75758;SDS011;64371;47.566;19.086;2023-04-24T18:02:56;5.50;;;2.97;;
75758;SDS011;64371;47.566;19.086;2023-04-24T18:06:04;4.47;;;2.47;;